Time;durP1;ratioP1;P1;durP2;ratioP2;P2;SDS_P1;SDS_P2;PMS_P1;PMS_P2;Temp;Humidity;BMP_temperature;BMP_pressure;BME280_temperature;BME280_humidity;BME280_pressure;Samples;Min_cycle;Max_cycle;Signal;HPM_P1;HPM_P2
2023/06/17 00:01:15;;;;;;;;;;;;;;;-140.72;0.00;52285.34;5082656;28;19920;-69
2023/06/17 00:03:42;;;;;;;;;;;;;;;-140.72;0.00;52281.28;5077022;28;19963;-69
2023/06/17 00:06:07;;;;;;;;;;;;;;;-140.72;0.00;52285.34;5071825;28;19932;-69
2023/06/17 00:08:32;;;;;;;;;;;;;;;-140.72;0.00;52265.06;5080369;28;19972;-70
2023/06/17 00:10:58;;;;;;;;;;;;;;;-140.72;0.00;52301.59;5075232;28;19920;-69
2023/06/17 00:13:25;;;;;;;;;;;;;;;-140.72;0.00;52303.59;5072571;28;19959;-69
2023/06/17 00:15:56;;;;;;;;;;;;;;;-140.72;0.00;52297.53;5071244;28;19935;-69
2023/06/17 00:18:22;;;;;;;;;;;;;;;-140.72;0.00;52252.88;5070348;28;20350;-69
2023/06/17 00:20:48;;;;;;;;;;;;;;;-140.72;0.00;52279.25;5068156;28;19926;-69
2023/06/17 00:23:13;;;;;;;;;;;;;;;-140.72;0.00;52265.06;5072438;28;19966;-69
2023/06/17 00:25:38;;;;;;;;;;;;;;;-140.72;0.00;52283.31;5072843;28;19924;-69
2023/06/17 00:28:03;;;;;;;;;;;;;;;-140.72;0.00;52293.47;5074497;28;19920;-69
2023/06/17 00:30:29;;;;;;;;;;;;;;;-140.72;0.00;52283.31;5068336;28;21439;-70
2023/06/17 00:32:54;;;;;;;;;;;;;;;-140.72;0.00;52275.19;5072171;28;19921;-69
2023/06/17 00:35:20;;;;;;;;;;;;;;;-140.72;0.00;52342.16;5072274;28;19921;-70
2023/06/17 00:37:45;;;;;;;;;;;;;;;-140.72;0.00;52299.56;5066601;28;19931;-70
2023/06/17 00:40:10;;;;;;;;;;;;;;;-140.72;0.00;52305.63;5072427;28;19921;-70
2023/06/17 00:42:36;;;;;;;;;;;;;;;-140.72;0.00;52323.91;5074702;28;19920;-68
2023/06/17 00:45:01;;;;;;;;;;;;;;;-140.72;0.00;52293.47;5072047;28;19921;-69
2023/06/17 00:47:26;;;;;;;;;;;;;;;-140.72;0.00;52283.31;5071764;28;20389;-69
2023/06/17 00:49:53;;;;;;;;;;;;;;;-140.72;0.00;52332.03;5071665;28;20346;-68
2023/06/17 00:52:18;;;;;;;;;;;;;;;-140.72;0.00;52334.03;5074822;28;19966;-69
2023/06/17 00:54:44;;;;;;;;;;;;;;;-140.72;0.00;52295.50;5071556;28;20302;-69
2023/06/17 00:57:13;;;;;;;;;;;;;;;-140.72;0.00;52281.28;5070596;28;19921;-68
2023/06/17 00:59:39;;;;;;;;;;;;;;;-140.72;0.00;52307.66;5071122;28;20242;-69
2023/06/17 01:02:05;;;;;;;;;;;;;;;-140.72;0.00;52285.34;5072671;28;20010;-68
2023/06/17 01:04:31;;;;;;;;;;;;;;;-140.72;0.00;52348.25;5068513;28;19938;-68
2023/06/17 01:07:09;;;;;;;;;;;;;;;-140.72;0.00;52295.50;5073767;28;19920;-69
2023/06/17 01:09:37;;;;;;;;;;;;;;;-140.72;0.00;52305.63;5067606;28;20023;-69
2023/06/17 01:12:04;;;;;;;;;;;;;;;-140.72;0.00;52327.97;5070604;28;19955;-68
2023/06/17 01:14:32;;;;;;;;;;;;;;;-140.72;0.00;52325.94;5067322;28;19932;-69
2023/06/17 01:16:57;;;;;;;;;;;;;;;-140.72;0.00;52350.28;5067167;28;19924;-69
2023/06/17 01:19:26;;;;;;;;;;;;;;;-140.72;0.00;52309.69;5081174;28;19928;-69
2023/06/17 01:21:53;;;;;;;;;;;;;;;-140.72;0.00;52313.75;5072621;28;19920;-69
2023/06/17 01:24:28;;;;;;;;;;;;;;;-140.72;0.00;52346.22;5068700;28;19943;-69
2023/06/17 01:26:57;;;;;;;;;;;;;;;-140.72;0.00;52305.63;5066102;28;19920;-69
2023/06/17 01:29:26;;;;;;;;;;;;;;;-140.72;0.00;52309.69;5067019;28;19924;-69
2023/06/17 01:31:52;;;;;;;;;;;;;;;-140.72;0.00;52297.53;5071523;28;19936;-69
2023/06/17 01:34:19;;;;;;;;;;;;;;;-140.72;0.00;52311.72;5068947;28;19995;-69
2023/06/17 01:36:47;;;;;;;;;;;;;;;-140.72;0.00;52289.41;5066929;28;20271;-69
2023/06/17 01:39:15;;;;;;;;;;;;;;;-140.72;0.00;52325.94;5067205;28;20011;-69
2023/06/17 01:41:45;;;;;;;;;;;;;;;-140.72;0.00;52307.66;5068803;28;19921;-70
2023/06/17 01:44:11;;;;;;;;;;;;;;;-140.72;0.00;52352.31;5069047;28;19964;-70
2023/06/17 01:46:37;;;;;;;;;;;;;;;-140.72;0.00;52307.66;5083090;28;19920;-70
2023/06/17 01:49:02;;;;;;;;;;;;;;;-140.72;0.00;52330.00;5085035;28;20058;-70
2023/06/17 01:51:27;;;;;;;;;;;;;;;-140.72;0.00;52356.38;5072299;28;20366;-70
2023/06/17 01:53:53;;;;;;;;;;;;;;;-140.72;0.00;52317.81;5071102;28;20370;-70
2023/06/17 01:56:18;;;;;;;;;;;;;;;-140.72;0.00;52334.03;5066414;28;19994;-69
2023/06/17 01:58:43;;;;;;;;;;;;;;;-140.72;0.00;52362.44;5071975;28;19928;-69
2023/06/17 02:01:08;;;;;;;;;;;;;;;-140.72;0.00;52342.16;5068813;28;20350;-69
2023/06/17 02:03:34;;;;;;;;;;;;;;;-140.72;0.00;52321.88;5075711;28;20436;-69
2023/06/17 02:05:59;;;;;;;;;;;;;;;-140.72;0.00;52346.22;5071310;28;19921;-69
2023/06/17 02:08:25;;;;;;;;;;;;;;;-140.72;0.00;52330.00;5078611;28;19921;-68
2023/06/17 02:10:52;;;;;;;;;;;;;;;-140.72;0.00;52325.94;5061597;28;19928;-69
2023/06/17 02:13:17;;;;;;;;;;;;;;;-140.72;0.00;52348.25;5078667;28;19948;-69
2023/06/17 02:15:42;;;;;;;;;;;;;;;-140.72;0.00;52344.19;5070644;28;19956;-68
2023/06/17 02:18:08;;;;;;;;;;;;;;;-140.72;0.00;52374.63;5074502;28;20378;-69
2023/06/17 02:20:34;;;;;;;;;;;;;;;-140.72;0.00;52356.38;5071845;28;20430;-69
2023/06/17 02:22:59;;;;;;;;;;;;;;;-140.72;0.00;52338.09;5074633;28;19962;-69
2023/06/17 02:25:27;;;;;;;;;;;;;;;-140.72;0.00;52338.09;5074649;28;19920;-68
2023/06/17 02:27:53;;;;;;;;;;;;;;;-140.72;0.00;52376.66;5074713;28;20354;-69
2023/06/17 02:30:18;;;;;;;;;;;;;;;-140.72;0.00;52364.47;5070106;28;19928;-69
2023/06/17 02:32:43;;;;;;;;;;;;;;;-140.72;0.00;52362.44;5077031;28;19921;-68
2023/06/17 02:35:10;;;;;;;;;;;;;;;-140.72;0.00;52362.44;5075131;28;19936;-69
2023/06/17 02:37:36;;;;;;;;;;;;;;;-140.72;0.00;52321.88;5076954;28;19921;-69
2023/06/17 02:40:07;;;;;;;;;;;;;;;-140.72;0.00;52360.44;5077481;28;20314;-69
2023/06/17 02:42:33;;;;;;;;;;;;;;;-140.72;0.00;52344.19;5074197;28;19931;-69
2023/06/17 02:44:58;;;;;;;;;;;;;;;-140.72;20.04;52327.97;5073737;28;19925;-69
2023/06/17 02:47:23;;;;;;;;;;;;;;;-140.72;36.66;52352.31;5070815;28;20381;-69
2023/06/17 02:49:48;;;;;;;;;;;;;;;-140.72;26.84;52342.16;5070384;28;19924;-69
2023/06/17 02:52:14;;;;;;;;;;;;;;;-140.72;29.58;52372.59;5070114;28;19928;-69
2023/06/17 02:54:39;;;;;;;;;;;;;;;-140.72;31.65;52370.56;5069092;28;19928;-69
2023/06/17 02:57:04;;;;;;;;;;;;;;;-140.72;23.01;52354.34;5071480;28;19921;-69
2023/06/17 02:59:33;;;;;;;;;;;;;;;-140.72;23.63;52372.59;5072663;28;19926;-70
2023/06/17 03:01:58;;;;;;;;;;;;;;;-140.72;32.96;52346.22;5070919;28;20263;-70
2023/06/17 03:04:24;;;;;;;;;;;;;;;-140.72;44.20;52366.50;5071768;28;19935;-70
2023/06/17 03:06:50;;;;;;;;;;;;;;;-140.72;49.29;52354.34;5066079;28;19924;-70
2023/06/17 03:09:16;;;;;;;;;;;;;;;-140.72;68.04;52374.63;5074001;28;19921;-69
2023/06/17 03:11:41;;;;;;;;;;;;;;;-140.72;80.47;52374.63;5071051;28;19969;-70
2023/06/17 03:14:07;;;;;;;;;;;;;;;-140.72;99.00;52358.41;5069480;28;19928;-69
2023/06/17 03:16:33;;;;;;;;;;;;;;;-140.72;78.85;52388.84;5071758;28;21003;-69
2023/06/17 03:18:59;;;;;;;;;;;;;;;-140.72;83.04;52348.25;5067623;28;19924;-69
2023/06/17 03:21:25;;;;;;;;;;;;;;;-140.72;78.03;52311.72;5070700;28;19943;-70
2023/06/17 03:23:50;;;;;;;;;;;;;;;-140.72;84.63;52346.22;5069372;28;19920;-69
2023/06/17 03:26:16;;;;;;;;;;;;;;;-140.72;90.24;52366.50;5069819;28;19920;-69
2023/06/17 03:28:41;;;;;;;;;;;;;;;-140.72;98.51;52346.22;5073197;28;20034;-69
2023/06/17 03:31:06;;;;;;;;;;;;;;;-140.72;92.41;52336.06;5071776;28;20011;-69
2023/06/17 03:33:31;;;;;;;;;;;;;;;-140.72;100.00;52362.44;5079211;28;20012;-69
2023/06/17 03:35:57;;;;;;;;;;;;;;;-140.72;97.77;52321.88;5071919;28;19921;-69
2023/06/17 03:38:22;;;;;;;;;;;;;;;-140.72;95.11;52313.75;5070075;28;19920;-69
2023/06/17 03:40:47;;;;;;;;;;;;;;;-140.72;93.94;52396.94;5066951;28;20269;-69
2023/06/17 03:43:13;;;;;;;;;;;;;;;-140.72;100.00;52354.34;5071134;28;19942;-69
2023/06/17 03:45:38;;;;;;;;;;;;;;;-140.72;100.00;52364.47;5067783;28;19925;-69
2023/06/17 03:48:04;;;;;;;;;;;;;;;-140.72;99.02;52350.28;5069675;28;19946;-69
2023/06/17 03:50:29;;;;;;;;;;;;;;;-140.72;90.13;52334.03;5067373;28;20342;-69
2023/06/17 03:52:55;;;;;;;;;;;;;;;-140.72;100.00;52370.56;5069192;28;19927;-69
2023/06/17 03:55:22;;;;;;;;;;;;;;;-140.72;100.00;52356.38;5072217;28;19943;-69
2023/06/17 03:57:47;;;;;;;;;;;;;;;-140.72;100.00;52348.25;5069915;28;19929;-69
2023/06/17 04:00:15;;;;;;;;;;;;;;;-140.72;100.00;52370.56;5065917;28;19920;-69
2023/06/17 04:02:44;;;;;;;;;;;;;;;-140.72;100.00;52356.38;5068002;28;20265;-69
2023/06/17 04:05:10;;;;;;;;;;;;;;;-140.72;100.00;52366.50;5067760;28;19949;-70
2023/06/17 04:07:38;;;;;;;;;;;;;;;-140.72;100.00;52327.97;5071040;28;19933;-69
2023/06/17 04:10:03;;;;;;;;;;;;;;;-140.72;100.00;52358.41;5063570;28;19928;-69
2023/06/17 04:12:29;;;;;;;;;;;;;;;-140.72;100.00;52366.50;5071504;28;19924;-70
2023/06/17 04:14:54;;;;;;;;;;;;;;;-140.72;100.00;52364.47;5070138;28;20360;-70
2023/06/17 04:17:20;;;;;;;;;;;;;;;-140.72;100.00;52338.09;5070640;28;19920;-70
2023/06/17 04:19:45;;;;;;;;;;;;;;;-140.72;100.00;52334.03;5069468;28;20014;-70
2023/06/17 04:22:10;;;;;;;;;;;;;;;-140.72;100.00;52334.03;5071441;28;20293;-70
2023/06/17 04:24:37;;;;;;;;;;;;;;;-140.72;100.00;52338.09;5067436;28;20037;-69
2023/06/17 04:27:05;;;;;;;;;;;;;;;-140.72;100.00;52342.16;5067654;28;21651;-70
2023/06/17 04:29:34;;;;;;;;;;;;;;;-140.72;100.00;52338.09;5069161;28;20405;-70
2023/06/17 04:32:01;;;;;;;;;;;;;;;-140.72;100.00;52362.44;5067740;28;19928;-70
2023/06/17 04:34:26;;;;;;;;;;;;;;;-140.72;100.00;52317.81;5069290;28;19920;-70
2023/06/17 04:36:57;;;;;;;;;;;;;;;-140.72;100.00;52330.00;5068031;28;19961;-70
2023/06/17 04:39:26;;;;;;;;;;;;;;;-140.72;100.00;52325.94;5068159;28;20054;-71
2023/06/17 04:41:52;;;;;;;;;;;;;;;-140.72;100.00;52315.78;5071016;28;19947;-72
2023/06/17 04:44:17;;;;;;;;;;;;;;;-140.72;100.00;52358.41;5066295;28;20346;-73
2023/06/17 04:46:43;;;;;;;;;;;;;;;-140.72;100.00;52336.06;5070880;28;19965;-73
2023/06/17 04:49:09;;;;;;;;;;;;;;;-140.72;100.00;52342.16;5065455;28;19944;-74
2023/06/17 04:51:38;;;;;;;;;;;;;;;-140.72;100.00;52332.03;5066935;28;20023;-74
2023/06/17 04:54:05;;;;;;;;;;;;;;;-140.72;100.00;52338.09;5066871;28;19927;-74
2023/06/17 04:56:30;;;;;;;;;;;;;;;-140.72;100.00;52293.47;5070005;28;19990;-74
2023/06/17 04:59:15;;;;;;;;;;;;;;;-140.72;100.00;52342.16;5071280;28;19920;-73
2023/06/17 05:01:45;;;;;;;;;;;;;;;-140.72;100.00;52340.13;5084415;28;20459;-74
2023/06/17 05:04:10;;;;;;;;;;;;;;;-140.72;100.00;52325.94;5069739;28;20330;-74
2023/06/17 05:06:36;;;;;;;;;;;;;;;-140.72;100.00;52317.81;5072730;28;19983;-73
2023/06/17 05:09:01;;;;;;;;;;;;;;;-140.72;100.00;52336.06;5071966;28;19920;-74
2023/06/17 05:11:26;;;;;;;;;;;;;;;-140.72;100.00;52354.34;5072045;28;19924;-74
2023/06/17 05:13:51;;;;;;;;;;;;;;;-140.72;100.00;52321.88;5074032;28;19959;-74
2023/06/17 05:16:17;;;;;;;;;;;;;;;-140.72;100.00;52311.72;5073721;28;20460;-74
2023/06/17 05:18:42;;;;;;;;;;;;;;;-140.72;100.00;52352.31;5088078;28;19917;-74
2023/06/17 05:21:07;;;;;;;;;;;;;;;-140.72;100.00;52321.88;5078840;28;19967;-74
2023/06/17 05:23:32;;;;;;;;;;;;;;;-140.72;100.00;52354.34;5074172;28;19921;-74
2023/06/17 05:25:57;;;;;;;;;;;;;;;-140.72;100.00;52309.69;5077692;28;19927;-73
2023/06/17 05:28:23;;;;;;;;;;;;;;;-140.72;100.00;52297.53;5076246;28;20378;-73
2023/06/17 05:30:48;;;;;;;;;;;;;;;-140.72;100.00;52269.13;5071294;28;20403;-74
2023/06/17 05:33:13;;;;;;;;;;;;;;;-140.72;100.00;52285.34;5072372;28;19924;-73
2023/06/17 05:35:38;;;;;;;;;;;;;;;-140.72;100.00;52277.22;5076493;28;19920;-75
2023/06/17 05:38:10;;;;;;;;;;;;;;;-140.72;100.00;52279.25;5088796;28;19920;-74
2023/06/17 05:40:35;;;;;;;;;;;;;;;-140.72;100.00;52265.06;5071730;28;19964;-73
2023/06/17 05:43:14;;;;;;;;;;;;;;;-140.72;100.00;52307.66;5075834;28;19971;-72
2023/06/17 05:45:39;;;;;;;;;;;;;;;-140.72;100.00;52330.00;5077717;28;19920;-72
2023/06/17 05:48:12;;;;;;;;;;;;;;;-140.72;100.00;52301.59;5076088;28;19935;-72
2023/06/17 05:50:37;;;;;;;;;;;;;;;-140.72;100.00;52248.81;5074886;28;20374;-72
2023/06/17 05:53:02;;;;;;;;;;;;;;;-140.72;100.00;52313.75;5076626;28;19924;-75
2023/06/17 05:55:27;;;;;;;;;;;;;;;-140.72;100.00;52261.00;5080504;28;19957;-75
2023/06/17 05:57:54;;;;;;;;;;;;;;;-140.72;100.00;52269.13;5075315;28;20263;-76
2023/06/17 06:00:19;;;;;;;;;;;;;;;-140.72;100.00;52256.94;5074009;28;20356;-71
2023/06/17 06:02:44;;;;;;;;;;;;;;;-140.72;100.00;52277.22;5075359;28;19929;-72
2023/06/17 06:05:09;;;;;;;;;;;;;;;-140.72;100.00;52265.06;5075833;28;20326;-72
2023/06/17 06:07:35;;;;;;;;;;;;;;;-140.72;100.00;52261.00;5073339;28;19917;-73
2023/06/17 06:10:03;;;;;;;;;;;;;;;-140.72;100.00;52222.44;5076842;28;20038;-72
2023/06/17 06:12:28;;;;;;;;;;;;;;;-140.72;100.00;52222.44;5075193;28;20359;-72
2023/06/17 06:14:54;;;;;;;;;;;;;;;-140.72;100.00;52236.66;5073427;28;19955;-72
2023/06/17 06:17:19;;;;;;;;;;;;;;;-140.72;100.00;52277.22;5075148;28;19950;-72
2023/06/17 06:19:44;;;;;;;;;;;;;;;-140.72;100.00;52224.47;5080509;28;19938;-73
2023/06/17 06:22:09;;;;;;;;;;;;;;;-140.72;100.00;52244.78;5076030;28;19920;-72
2023/06/17 06:24:35;;;;;;;;;;;;;;;-140.72;100.00;52220.41;5076754;28;20037;-72
2023/06/17 06:27:00;;;;;;;;;;;;;;;-140.72;100.00;52204.19;5078546;28;19926;-72
2023/06/17 06:29:25;;;;;;;;;;;;;;;-140.72;100.00;52248.81;5074000;28;19976;-72
2023/06/17 06:31:50;;;;;;;;;;;;;;;-140.72;100.00;52204.19;5075361;28;19924;-72
2023/06/17 06:34:15;;;;;;;;;;;;;;;-140.72;100.00;52228.53;5075671;28;19929;-72
2023/06/17 06:36:41;;;;;;;;;;;;;;;-140.72;88.87;52200.13;5078046;28;19961;-72
2023/06/17 06:39:06;;;;;;;;;;;;;;;-140.72;44.38;52208.25;5076036;28;19927;-75
2023/06/17 06:41:31;;;;;;;;;;;;;;;-140.72;25.12;52226.50;5076938;28;20378;-72
2023/06/17 06:43:56;;;;;;;;;;;;;;;-140.72;0.00;52194.03;5076658;28;20350;-72
2023/06/17 06:46:22;;;;;;;;;;;;;;;-140.72;0.00;52149.41;5070452;28;20301;-72
2023/06/17 06:48:47;;;;;;;;;;;;;;;-140.72;0.00;52210.28;5071456;28;20410;-72
2023/06/17 06:51:13;;;;;;;;;;;;;;;-140.72;0.00;52167.66;5071215;28;19927;-72
2023/06/17 06:53:38;;;;;;;;;;;;;;;-140.72;0.00;52151.44;5071617;28;20301;-72
2023/06/17 06:56:03;;;;;;;;;;;;;;;-140.72;0.00;52139.25;5071279;28;19948;-72
2023/06/17 06:58:28;;;;;;;;;;;;;;;-140.72;0.00;52169.69;5070782;28;19924;-72
2023/06/17 07:00:54;;;;;;;;;;;;;;;-140.72;0.00;52127.09;5071218;28;19927;-72
2023/06/17 07:03:19;;;;;;;;;;;;;;;-140.72;0.00;52129.13;5076282;28;19988;-72
2023/06/17 07:05:45;;;;;;;;;;;;;;;-140.72;0.00;52112.88;5084625;28;19927;-72
2023/06/17 07:08:10;;;;;;;;;;;;;;;-140.72;0.00;52123.03;5077865;28;19920;-71
2023/06/17 07:10:39;;;;;;;;;;;;;;;-140.72;0.00;52151.44;5071936;28;19950;-72
2023/06/17 07:13:04;;;;;;;;;;;;;;;-140.72;0.00;52137.22;5073264;28;20016;-72
2023/06/17 07:15:30;;;;;;;;;;;;;;;-140.72;0.00;52141.28;5073520;28;19952;-72
2023/06/17 07:17:55;;;;;;;;;;;;;;;-140.72;0.00;52100.72;5074848;28;19948;-71
2023/06/17 07:20:20;;;;;;;;;;;;;;;-140.72;0.00;52125.06;5070778;28;19925;-72
2023/06/17 07:22:45;;;;;;;;;;;;;;;-140.72;0.00;52106.78;5069136;28;20373;-72
2023/06/17 07:25:11;;;;;;;;;;;;;;;-140.72;0.00;52106.78;5071026;28;20011;-73
2023/06/17 07:27:36;;;;;;;;;;;;;;;-140.72;0.00;52125.06;5073321;28;19946;-72
2023/06/17 07:30:01;;;;;;;;;;;;;;;-140.72;0.00;52129.13;5085666;28;19990;-73
2023/06/17 07:32:26;;;;;;;;;;;;;;;-140.72;0.00;52143.31;5071500;28;19925;-73
2023/06/17 07:34:53;;;;;;;;;;;;;;;-140.72;0.00;52116.94;5069627;28;19999;-73
2023/06/17 07:37:18;;;;;;;;;;;;;;;-140.72;0.00;52068.25;5065578;28;19917;-73
2023/06/17 07:39:46;;;;;;;;;;;;;;;-140.72;0.00;52088.53;5072659;28;20369;-73
2023/06/17 07:42:12;;;;;;;;;;;;;;;-140.72;0.00;52114.91;5067223;28;19920;-72
2023/06/17 07:44:37;;;;;;;;;;;;;;;-140.72;0.00;52062.16;5071200;28;19922;-73
2023/06/17 07:47:02;;;;;;;;;;;;;;;-140.72;0.00;52116.94;5079661;28;19960;-72
2023/06/17 07:49:29;;;;;;;;;;;;;;;-140.72;0.00;52094.63;5073539;28;20049;-71
2023/06/17 07:51:55;;;;;;;;;;;;;;;-140.72;0.00;52072.31;5072814;28;19932;-71
2023/06/17 07:54:20;;;;;;;;;;;;;;;-140.72;0.00;52072.31;5070312;28;19928;-73
2023/06/17 07:56:46;;;;;;;;;;;;;;;-140.72;0.00;52100.72;5067613;28;19939;-73
2023/06/17 07:59:11;;;;;;;;;;;;;;;-140.72;0.00;52045.94;5068742;28;19924;-74
2023/06/17 08:01:37;;;;;;;;;;;;;;;-140.72;0.00;52070.28;5064347;28;19917;-74
2023/06/17 08:04:02;;;;;;;;;;;;;;;-140.72;0.00;52041.88;5064875;28;19921;-72
2023/06/17 08:06:28;;;;;;;;;;;;;;;-140.72;0.00;52114.91;5077502;28;19938;-73
2023/06/17 08:08:54;;;;;;;;;;;;;;;-140.72;0.00;52052.00;5074534;28;19936;-74
2023/06/17 08:11:19;;;;;;;;;;;;;;;-140.72;0.00;52049.97;5070118;28;19950;-73
2023/06/17 08:13:44;;;;;;;;;;;;;;;-140.72;0.00;52037.81;5072998;28;19920;-74
2023/06/17 08:16:10;;;;;;;;;;;;;;;-140.72;0.00;52009.41;5072895;28;20296;-73
2023/06/17 08:18:35;;;;;;;;;;;;;;;-140.72;0.00;52056.06;5073143;28;19932;-73
2023/06/17 08:21:00;;;;;;;;;;;;;;;-140.72;0.00;52029.69;5071970;28;19928;-72
2023/06/17 08:23:26;;;;;;;;;;;;;;;-140.72;0.00;51999.25;5073100;28;19944;-73
2023/06/17 08:25:51;;;;;;;;;;;;;;;-140.72;0.00;52027.66;5072559;28;19935;-75
2023/06/17 08:28:17;;;;;;;;;;;;;;;-140.72;0.00;52003.31;5075071;28;19921;-75
2023/06/17 08:30:42;;;;;;;;;;;;;;;-140.72;0.00;51952.59;5079523;28;19960;-75
2023/06/17 08:33:08;;;;;;;;;;;;;;;-140.72;0.00;51976.94;5081510;28;19921;-74
2023/06/17 08:35:33;;;;;;;;;;;;;;;-140.72;0.00;51936.38;5067115;28;20326;-74
2023/06/17 08:37:58;;;;;;;;;;;;;;;-140.72;0.00;51952.59;5084166;28;19969;-72
2023/06/17 08:40:26;;;;;;;;;;;;;;;-140.72;0.00;51938.41;5088719;28;19924;-73
2023/06/17 08:42:59;;;;;;;;;;;;;;;-140.72;0.00;51910.00;5085819;28;19927;-74
2023/06/17 08:45:25;;;;;;;;;;;;;;;-140.72;0.00;51966.81;5067698;28;19924;-72
2023/06/17 08:47:50;;;;;;;;;;;;;;;-140.72;0.00;51956.66;5084587;28;19940;-71
2023/06/17 08:50:16;;;;;;;;;;;;;;;-140.72;0.00;51905.94;5076765;28;19934;-73
2023/06/17 08:52:42;;;;;;;;;;;;;;;-140.72;0.00;51918.09;5073870;28;19924;-72
2023/06/17 08:55:08;;;;;;;;;;;;;;;-140.72;0.00;51956.66;5072920;28;20011;-71
2023/06/17 08:57:33;;;;;;;;;;;;;;;-140.72;0.00;51920.13;5073030;28;20058;-72
2023/06/17 08:59:58;;;;;;;;;;;;;;;-140.72;0.00;51920.13;5068276;28;19932;-72
2023/06/17 09:02:24;;;;;;;;;;;;;;;-140.72;0.00;51914.03;5080646;28;20452;-71
2023/06/17 09:04:50;;;;;;;;;;;;;;;-140.72;0.00;51875.50;5072307;28;19974;-74
2023/06/17 09:07:15;;;;;;;;;;;;;;;-140.72;0.00;51847.09;5071126;28;19952;-73
2023/06/17 09:09:46;;;;;;;;;;;;;;;-140.72;0.00;51873.47;5070010;28;19935;-73
2023/06/17 09:12:11;;;;;;;;;;;;;;;-140.72;0.00;51871.44;5070872;28;19930;-76
2023/06/17 09:14:36;;;;;;;;;;;;;;;-140.72;0.00;51863.31;5068450;28;19928;-72
2023/06/17 09:17:02;;;;;;;;;;;;;;;-140.72;0.00;51859.28;5070527;28;19927;-77
2023/06/17 09:19:31;;;;;;;;;;;;;;;-140.72;0.00;51843.03;5069305;28;20187;-72
2023/06/17 09:21:58;;;;;;;;;;;;;;;-140.72;0.00;51843.03;5062640;28;19928;-72
2023/06/17 09:24:30;;;;;;;;;;;;;;;-140.72;0.00;51826.81;5065860;28;21502;-73
2023/06/17 09:26:55;;;;;;;;;;;;;;;-140.72;0.00;51796.38;5067644;28;20389;-72
2023/06/17 09:29:21;;;;;;;;;;;;;;;-140.72;0.00;51826.81;5069166;28;19920;-72
2023/06/17 09:31:46;;;;;;;;;;;;;;;-140.72;0.00;51737.53;5067558;28;19975;-72
2023/06/17 09:34:11;;;;;;;;;;;;;;;-140.72;0.00;51749.72;5068675;28;20023;-73
2023/06/17 09:36:37;;;;;;;;;;;;;;;-140.72;0.00;51717.25;5067603;28;20019;-69
2023/06/17 09:39:05;;;;;;;;;;;;;;;-140.72;0.00;51725.38;5070545;28;19924;-68
2023/06/17 09:41:35;;;;;;;;;;;;;;;-140.72;0.00;51696.97;5067140;28;19987;-67
2023/06/17 09:44:00;;;;;;;;;;;;;;;-140.72;0.00;51630.00;5070249;28;19926;-69
2023/06/17 09:46:29;;;;;;;;;;;;;;;-140.72;0.00;51676.69;5070332;28;19935;-71
2023/06/17 09:48:54;;;;;;;;;;;;;;;-140.72;0.00;51711.16;5073186;28;20279;-69
2023/06/17 09:51:21;;;;;;;;;;;;;;;-140.72;0.00;51674.66;5066598;28;19927;-72
2023/06/17 09:53:49;;;;;;;;;;;;;;;-140.72;0.00;51676.69;5069435;28;19920;-71
2023/06/17 09:56:14;;;;;;;;;;;;;;;-140.72;0.00;51656.38;5069616;28;19921;-74
2023/06/17 09:58:40;;;;;;;;;;;;;;;-140.72;0.00;51682.75;5067792;28;19928;-74
2023/06/17 10:01:07;;;;;;;;;;;;;;;-140.72;0.00;51640.16;5067393;28;19964;-76
2023/06/17 10:03:33;;;;;;;;;;;;;;;-140.72;0.00;51585.38;5067559;28;19924;-74
2023/06/17 10:06:18;;;;;;;;;;;;;;;-140.72;0.00;51567.13;5072846;28;20309;-71
2023/06/17 10:08:43;;;;;;;;;;;;;;;-140.72;0.00;51583.34;5069807;28;19921;-72
2023/06/17 10:11:19;;;;;;;;;;;;;;;-140.72;0.00;51536.69;5074539;28;19931;-72
2023/06/17 10:13:45;;;;;;;;;;;;;;;-140.72;0.00;51540.75;5065208;28;19965;-71
2023/06/17 10:16:15;;;;;;;;;;;;;;;-140.72;0.00;51603.63;5069141;28;19920;-71
2023/06/17 10:18:42;;;;;;;;;;;;;;;-140.72;0.00;51644.22;5070075;28;19920;-72
2023/06/17 10:21:09;;;;;;;;;;;;;;;-140.72;0.00;51611.75;5059051;28;19921;-74
2023/06/17 10:23:36;;;;;;;;;;;;;;;-140.72;0.00;51556.97;5078976;28;19959;-74
2023/06/17 10:26:04;;;;;;;;;;;;;;;-140.72;0.00;51502.22;5086552;28;19924;-74
2023/06/17 10:28:41;;;;;;;;;;;;;;;-140.72;0.00;51518.44;5070085;28;19935;-75
2023/06/17 10:31:18;;;;;;;;;;;;;;;-140.72;0.00;51522.50;5074577;28;19921;-72
2023/06/17 10:33:45;;;;;;;;;;;;;;;-140.72;0.00;51524.53;5078371;28;19920;-72
2023/06/17 10:36:14;;;;;;;;;;;;;;;-140.72;0.00;51490.03;5079831;28;19932;-72
2023/06/17 10:38:39;;;;;;;;;;;;;;;-140.72;0.00;51461.63;5075723;28;19928;-72
2023/06/17 10:41:05;;;;;;;;;;;;;;;-140.72;0.00;51404.84;5079795;28;19928;-71
2023/06/17 10:43:37;;;;;;;;;;;;;;;-140.72;0.00;51431.19;5076191;28;20006;-72
2023/06/17 10:46:02;;;;;;;;;;;;;;;-140.72;0.00;51441.34;5077369;28;20059;-72
2023/06/17 10:48:28;;;;;;;;;;;;;;;-140.72;0.00;51475.84;5073603;28;19975;-72
2023/06/17 10:50:55;;;;;;;;;;;;;;;-140.72;0.00;51514.38;5072897;28;20023;-72
2023/06/17 10:53:43;;;;;;;;;;;;;;;-140.72;0.00;51445.41;5072582;28;19950;-72
2023/06/17 10:56:08;;;;;;;;;;;;;;;-140.72;0.00;51408.88;5089871;28;19974;-72
2023/06/17 10:58:35;;;;;;;;;;;;;;;-140.72;0.00;51443.38;5071450;28;19923;-72
2023/06/17 11:01:01;;;;;;;;;;;;;;;-140.72;0.00;51386.56;5065613;28;19966;-75
2023/06/17 11:03:26;;;;;;;;;;;;;;;-140.72;0.00;51348.03;5076217;28;20499;-76
2023/06/17 11:06:09;;;;;;;;;;;;;;;-140.72;0.00;51348.03;5073001;28;19920;-72
2023/06/17 11:08:35;;;;;;;;;;;;;;;-140.72;0.00;51352.09;5072117;28;19968;-71
2023/06/17 11:11:13;;;;;;;;;;;;;;;-140.72;0.00;51352.09;5076385;28;20286;-72
2023/06/17 11:13:42;;;;;;;;;;;;;;;-140.72;0.00;51315.56;5071169;28;20023;-73
2023/06/17 11:16:29;;;;;;;;;;;;;;;-140.72;0.00;51337.88;5078435;28;19943;-75
2023/06/17 11:18:54;;;;;;;;;;;;;;;-140.72;0.00;51327.75;5065876;28;20007;-72
2023/06/17 11:21:30;;;;;;;;;;;;;;;-140.72;0.00;51333.84;5074615;28;19959;-75
2023/06/17 11:23:55;;;;;;;;;;;;;;;-140.72;0.00;51343.97;5084268;28;19921;-75
2023/06/17 11:26:20;;;;;;;;;;;;;;;-140.72;0.00;51354.13;5076460;28;20037;-74
2023/06/17 11:28:46;;;;;;;;;;;;;;;-140.72;0.00;51358.19;5071801;28;19920;-75
2023/06/17 11:31:11;;;;;;;;;;;;;;;-140.72;0.00;51362.22;5075333;28;19921;-74
2023/06/17 11:33:36;;;;;;;;;;;;;;;-140.72;0.00;51339.91;5075844;28;20385;-74
2023/06/17 11:36:08;;;;;;;;;;;;;;;-140.72;0.00;51331.81;5077018;28;19995;-76
2023/06/17 11:38:33;;;;;;;;;;;;;;;-140.72;0.00;51333.84;5075839;28;19924;-75
2023/06/17 11:40:59;;;;;;;;;;;;;;;-140.72;0.00;51374.41;5074344;28;20070;-78
2023/06/17 11:43:27;;;;;;;;;;;;;;;-140.72;0.00;51394.69;5076607;28;20030;-74
2023/06/17 11:46:01;;;;;;;;;;;;;;;-140.72;0.00;51388.59;5071840;28;20289;-75
2023/06/17 11:48:28;;;;;;;;;;;;;;;-140.72;0.00;51400.78;5073326;28;19921;-77
2023/06/17 11:50:53;;;;;;;;;;;;;;;-140.72;0.00;51419.03;5073719;28;19920;-75
2023/06/17 11:53:31;;;;;;;;;;;;;;;-140.72;0.00;51372.38;5069660;28;20035;-76
2023/06/17 11:56:09;;;;;;;;;;;;;;;-140.72;0.00;51301.38;5085666;28;20006;-75
2023/06/17 11:58:37;;;;;;;;;;;;;;;-140.72;0.00;51364.25;5069809;28;20260;-76
2023/06/17 12:01:03;;;;;;;;;;;;;;;-140.72;0.00;51317.59;5080428;28;19920;-76
2023/06/17 12:03:28;;;;;;;;;;;;;;;-140.72;0.00;51287.19;5073243;28;20329;-76
2023/06/17 12:05:54;;;;;;;;;;;;;;;-140.72;0.00;51287.19;5076272;28;19927;-80
2023/06/17 12:08:19;;;;;;;;;;;;;;;-140.72;0.00;51321.66;5077362;28;19966;-79
2023/06/17 12:10:44;;;;;;;;;;;;;;;-140.72;0.00;51299.34;5076778;28;19960;-78
2023/06/17 12:13:13;;;;;;;;;;;;;;;-140.72;0.00;51425.13;5075095;28;19921;-78
2023/06/17 12:15:38;;;;;;;;;;;;;;;-140.72;0.00;51463.66;5086638;28;19928;-77
2023/06/17 12:18:10;;;;;;;;;;;;;;;-140.72;0.00;51449.47;5090997;28;20353;-77
2023/06/17 12:20:39;;;;;;;;;;;;;;;-140.72;0.00;51380.50;5092428;28;19946;-78
2023/06/17 12:23:05;;;;;;;;;;;;;;;-140.72;0.00;51419.03;5092175;28;19950;-80
2023/06/17 12:25:34;;;;;;;;;;;;;;;-140.72;0.00;51378.47;5083594;28;19928;-79
2023/06/17 12:28:00;;;;;;;;;;;;;;;-140.72;0.00;51372.38;5076758;28;19932;-79